sensor_id;sensor_type;location;lat;lon;timestamp;pressure;altitude;pressure_sealevel;temperature;humidity
48424;BME280;34232;42.502;26.014;2023-03-04T00:01:15;100250.88;;;6.50;89.37
48424;BME280;34232;42.502;26.014;2023-03-04T00:03:41;100248.84;;;6.55;90.03
48424;BME280;34232;42.502;26.014;2023-03-04T00:06:06;100239.88;;;6.59;89.46
48424;BME280;34232;42.502;26.014;2023-03-04T00:08:31;100229.41;;;6.59;89.18
48424;BME280;34232;42.502;26.014;2023-03-04T00:10:57;100227.53;;;6.61;89.54
48424;BME280;34232;42.502;26.014;2023-03-04T00:13:22;100220.44;;;6.63;89.51
48424;BME280;34232;42.502;26.014;2023-03-04T00:15:48;100231.41;;;6.68;89.98
48424;BME280;34232;42.502;26.014;2023-03-04T00:18:13;100226.09;;;6.70;89.35
48424;BME280;34232;42.502;26.014;2023-03-04T00:20:39;100219.84;;;6.72;89.28
48424;BME280;34232;42.502;26.014;2023-03-04T00:23:04;100219.84;;;6.72;89.00
48424;BME280;34232;42.502;26.014;2023-03-04T00:25:29;100218.91;;;6.73;89.02
48424;BME280;34232;42.502;26.014;2023-03-04T00:27:55;100216.09;;;6.76;88.95
48424;BME280;34232;42.502;26.014;2023-03-04T00:30:22;100202.81;;;6.79;89.20
48424;BME280;34232;42.502;26.014;2023-03-04T00:32:47;100203.75;;;6.78;89.05
48424;BME280;34232;42.502;26.014;2023-03-04T00:35:12;100203.94;;;6.75;88.89
48424;BME280;34232;42.502;26.014;2023-03-04T00:37:38;100205.63;;;6.76;88.25
48424;BME280;34232;42.502;26.014;2023-03-04T00:40:03;100209.19;;;6.75;87.96
48424;BME280;34232;42.502;26.014;2023-03-04T00:42:29;100218.16;;;6.71;86.66
48424;BME280;34232;42.502;26.014;2023-03-04T00:44:54;100218.47;;;6.52;86.03
48424;BME280;34232;42.502;26.014;2023-03-04T00:47:19;100215.59;;;6.57;85.17
48424;BME280;34232;42.502;26.014;2023-03-04T00:49:44;100224.72;;;6.50;85.83
48424;BME280;34232;42.502;26.014;2023-03-04T00:52:10;100214.09;;;6.53;84.91
48424;BME280;34232;42.502;26.014;2023-03-04T00:54:35;100208.50;;;6.45;83.62
48424;BME280;34232;42.502;26.014;2023-03-04T00:57:00;100210.56;;;6.40;83.41
48424;BME280;34232;42.502;26.014;2023-03-04T00:59:26;100210.50;;;6.27;83.35
48424;BME280;34232;42.502;26.014;2023-03-04T01:01:51;100199.56;;;6.20;83.44
48424;BME280;34232;42.502;26.014;2023-03-04T01:04:16;100211.34;;;6.13;83.59
48424;BME280;34232;42.502;26.014;2023-03-04T01:06:41;100205.47;;;5.95;84.65
48424;BME280;34232;42.502;26.014;2023-03-04T01:09:07;100206.09;;;5.85;85.40
48424;BME280;34232;42.502;26.014;2023-03-04T01:11:32;100209.91;;;5.65;86.58
48424;BME280;34232;42.502;26.014;2023-03-04T01:13:57;100210.25;;;5.59;87.50
48424;BME280;34232;42.502;26.014;2023-03-04T01:16:23;100212.22;;;5.70;87.22
48424;BME280;34232;42.502;26.014;2023-03-04T01:18:48;100208.50;;;5.74;86.09
48424;BME280;34232;42.502;26.014;2023-03-04T01:21:13;100211.97;;;5.74;85.26
48424;BME280;34232;42.502;26.014;2023-03-04T01:23:38;100213.72;;;5.74;85.18
48424;BME280;34232;42.502;26.014;2023-03-04T01:26:04;100221.00;;;5.69;85.49
48424;BME280;34232;42.502;26.014;2023-03-04T01:28:29;100215.38;;;5.46;87.23
48424;BME280;34232;42.502;26.014;2023-03-04T01:30:54;100211.16;;;5.44;87.30
48424;BME280;34232;42.502;26.014;2023-03-04T01:33:20;100215.00;;;5.52;86.88
48424;BME280;34232;42.502;26.014;2023-03-04T01:35:45;100214.91;;;5.54;87.20
48424;BME280;34232;42.502;26.014;2023-03-04T01:38:10;100214.47;;;5.61;87.20
48424;BME280;34232;42.502;26.014;2023-03-04T01:40:36;100224.56;;;5.68;87.80
48424;BME280;34232;42.502;26.014;2023-03-04T01:43:02;100224.22;;;5.44;87.81
48424;BME280;34232;42.502;26.014;2023-03-04T01:45:27;100223.41;;;5.57;87.27
48424;BME280;34232;42.502;26.014;2023-03-04T01:47:53;100223.81;;;5.66;86.67
48424;BME280;34232;42.502;26.014;2023-03-04T01:50:20;100224.34;;;5.71;86.60
48424;BME280;34232;42.502;26.014;2023-03-04T01:52:46;100218.03;;;5.75;86.28
48424;BME280;34232;42.502;26.014;2023-03-04T01:55:15;100217.94;;;5.76;85.79
48424;BME280;34232;42.502;26.014;2023-03-04T01:57:41;100218.78;;;5.77;85.46
48424;BME280;34232;42.502;26.014;2023-03-04T02:03:12;100210.53;;;5.69;83.49
48424;BME280;34232;42.502;26.014;2023-03-04T02:05:37;100215.97;;;5.66;83.04
48424;BME280;34232;42.502;26.014;2023-03-04T02:08:04;100223.41;;;5.57;83.62
48424;BME280;34232;42.502;26.014;2023-03-04T02:10:30;100218.44;;;5.53;84.45
48424;BME280;34232;42.502;26.014;2023-03-04T02:12:55;100217.81;;;5.49;84.84
48424;BME280;34232;42.502;26.014;2023-03-04T02:15:21;100221.19;;;5.51;84.74
48424;BME280;34232;42.502;26.014;2023-03-04T02:17:47;100231.78;;;5.48;84.97
48424;BME280;34232;42.502;26.014;2023-03-04T02:25:26;100245.75;;;5.33;85.50
48424;BME280;34232;42.502;26.014;2023-03-04T02:27:55;100242.53;;;5.28;86.02
48424;BME280;34232;42.502;26.014;2023-03-04T02:30:20;100243.22;;;5.32;86.83
48424;BME280;34232;42.502;26.014;2023-03-04T02:32:47;100237.69;;;5.36;87.56
48424;BME280;34232;42.502;26.014;2023-03-04T02:35:13;100240.06;;;5.41;86.55
48424;BME280;34232;42.502;26.014;2023-03-04T02:37:40;100234.75;;;5.42;86.55
48424;BME280;34232;42.502;26.014;2023-03-04T02:40:07;100233.06;;;5.41;86.86
48424;BME280;34232;42.502;26.014;2023-03-04T02:42:33;100238.66;;;5.35;87.12
48424;BME280;34232;42.502;26.014;2023-03-04T02:44:59;100245.75;;;5.33;86.92
48424;BME280;34232;42.502;26.014;2023-03-04T02:47:25;100246.91;;;5.27;87.33
48424;BME280;34232;42.502;26.014;2023-03-04T02:49:50;100251.84;;;5.18;88.11
48424;BME280;34232;42.502;26.014;2023-03-04T02:52:19;100251.09;;;5.16;88.61
48424;BME280;34232;42.502;26.014;2023-03-04T02:54:46;100248.09;;;5.22;88.58
48424;BME280;34232;42.502;26.014;2023-03-04T02:57:14;100241.19;;;5.21;87.90
48424;BME280;34232;42.502;26.014;2023-03-04T02:59:40;100233.50;;;5.19;88.98
48424;BME280;34232;42.502;26.014;2023-03-04T03:02:06;100233.13;;;5.25;89.33
48424;BME280;34232;42.502;26.014;2023-03-04T03:04:31;100230.06;;;5.33;89.16
48424;BME280;34232;42.502;26.014;2023-03-04T03:06:57;100233.44;;;5.35;89.39
48424;BME280;34232;42.502;26.014;2023-03-04T03:09:22;100224.78;;;5.35;89.85
48424;BME280;34232;42.502;26.014;2023-03-04T03:11:47;100233.63;;;5.32;90.74
48424;BME280;34232;42.502;26.014;2023-03-04T03:14:13;100230.53;;;5.40;90.76
48424;BME280;34232;42.502;26.014;2023-03-04T03:16:38;100222.44;;;5.44;90.38
48424;BME280;34232;42.502;26.014;2023-03-04T03:19:04;100222.09;;;5.50;90.16
48424;BME280;34232;42.502;26.014;2023-03-04T03:21:29;100222.09;;;5.50;89.95
48424;BME280;34232;42.502;26.014;2023-03-04T03:23:54;100214.81;;;5.55;89.62
48424;BME280;34232;42.502;26.014;2023-03-04T03:26:20;100219.88;;;5.58;89.93
48424;BME280;34232;42.502;26.014;2023-03-04T03:28:45;100219.88;;;5.58;90.00
48424;BME280;34232;42.502;26.014;2023-03-04T03:31:11;100220.53;;;5.62;90.39
48424;BME280;34232;42.502;26.014;2023-03-04T03:33:36;100220.44;;;5.63;90.47
48424;BME280;34232;42.502;26.014;2023-03-04T03:36:01;100227.00;;;5.41;91.00
48424;BME280;34232;42.502;26.014;2023-03-04T03:38:26;100230.19;;;5.46;91.62
48424;BME280;34232;42.502;26.014;2023-03-04T03:40:52;100236.59;;;5.40;92.06
48424;BME280;34232;42.502;26.014;2023-03-04T03:43:17;100241.31;;;5.49;92.74
48424;BME280;34232;42.502;26.014;2023-03-04T03:45:43;100240.41;;;5.65;92.36
48424;BME280;34232;42.502;26.014;2023-03-04T03:48:08;100237.22;;;5.59;92.67
48424;BME280;34232;42.502;26.014;2023-03-04T03:50:33;100243.56;;;5.70;93.42
48424;BME280;34232;42.502;26.014;2023-03-04T03:52:58;100247.25;;;5.81;92.75
48424;BME280;34232;42.502;26.014;2023-03-04T03:55:24;100249.41;;;5.89;91.40
48424;BME280;34232;42.502;26.014;2023-03-04T03:57:49;100254.63;;;5.89;91.11
48424;BME280;34232;42.502;26.014;2023-03-04T04:00:15;100259.69;;;5.92;90.71
48424;BME280;34232;42.502;26.014;2023-03-04T04:02:41;100257.66;;;5.97;90.87
48424;BME280;34232;42.502;26.014;2023-03-04T04:05:07;100260.81;;;6.02;90.70
48424;BME280;34232;42.502;26.014;2023-03-04T04:07:36;100258.94;;;6.04;90.04
48424;BME280;34232;42.502;26.014;2023-03-04T04:10:02;100262.31;;;6.06;89.57
48424;BME280;34232;42.502;26.014;2023-03-04T04:12:27;100261.56;;;6.04;90.08
48424;BME280;34232;42.502;26.014;2023-03-04T04:14:52;100256.16;;;6.07;89.97
48424;BME280;34232;42.502;26.014;2023-03-04T04:17:18;100256.16;;;6.07;89.72
48424;BME280;34232;42.502;26.014;2023-03-04T04:19:43;100255.22;;;6.08;90.05
48424;BME280;34232;42.502;26.014;2023-03-04T04:22:12;100252.59;;;6.08;89.86
48424;BME280;34232;42.502;26.014;2023-03-04T04:24:38;100255.22;;;6.08;89.85
48424;BME280;34232;42.502;26.014;2023-03-04T04:27:04;100252.78;;;6.05;89.83
48424;BME280;34232;42.502;26.014;2023-03-04T04:29:29;100252.69;;;6.07;89.74
48424;BME280;34232;42.502;26.014;2023-03-04T04:31:54;100250.75;;;6.10;90.07
48424;BME280;34232;42.502;26.014;2023-03-04T04:34:20;100248.88;;;6.12;89.88
48424;BME280;34232;42.502;26.014;2023-03-04T04:36:45;100249.63;;;6.14;89.65
48424;BME280;34232;42.502;26.014;2023-03-04T04:39:10;100252.88;;;6.18;89.54
48424;BME280;34232;42.502;26.014;2023-03-04T04:41:38;100256.31;;;6.18;89.60
48424;BME280;34232;42.502;26.014;2023-03-04T04:44:03;100256.16;;;6.21;89.42
48424;BME280;34232;42.502;26.014;2023-03-04T04:46:29;100255.97;;;6.24;89.58
48424;BME280;34232;42.502;26.014;2023-03-04T04:48:54;100257.66;;;6.25;89.09
48424;BME280;34232;42.502;26.014;2023-03-04T04:51:20;100257.56;;;6.27;89.54
48424;BME280;34232;42.502;26.014;2023-03-04T04:53:45;100257.66;;;6.25;89.59
48424;BME280;34232;42.502;26.014;2023-03-04T04:56:14;100257.81;;;6.22;89.41
48424;BME280;34232;42.502;26.014;2023-03-04T04:58:40;100258.66;;;6.23;89.36
48424;BME280;34232;42.502;26.014;2023-03-04T05:01:06;100261.38;;;6.21;89.37
48424;BME280;34232;42.502;26.014;2023-03-04T05:03:32;100252.59;;;6.22;89.55
48424;BME280;34232;42.502;26.014;2023-03-04T05:05:57;100250.91;;;6.21;89.27
48424;BME280;34232;42.502;26.014;2023-03-04T05:08:23;100251.00;;;6.20;89.37
48424;BME280;34232;42.502;26.014;2023-03-04T05:10:48;100254.56;;;6.19;89.44
48424;BME280;34232;42.502;26.014;2023-03-04T05:13:13;100251.84;;;6.20;90.08
48424;BME280;34232;42.502;26.014;2023-03-04T05:15:38;100245.78;;;6.20;90.09
48424;BME280;34232;42.502;26.014;2023-03-04T05:18:04;100242.97;;;6.23;90.29
48424;BME280;34232;42.502;26.014;2023-03-04T05:20:29;100244.56;;;6.25;90.47
48424;BME280;34232;42.502;26.014;2023-03-04T05:22:54;100249.53;;;6.30;90.56
48424;BME280;34232;42.502;26.014;2023-03-04T05:25:20;100245.31;;;6.27;91.38
48424;BME280;34232;42.502;26.014;2023-03-04T05:27:45;100251.84;;;6.35;91.54
48424;BME280;34232;42.502;26.014;2023-03-04T05:30:10;100249.69;;;6.41;91.56
48424;BME280;34232;42.502;26.014;2023-03-04T05:32:36;100250.88;;;6.50;91.58
48424;BME280;34232;42.502;26.014;2023-03-04T05:35:01;100254.06;;;6.55;91.48
48424;BME280;34232;42.502;26.014;2023-03-04T05:37:27;100259.09;;;6.58;91.31
48424;BME280;34232;42.502;26.014;2023-03-04T05:39:52;100271.06;;;6.33;91.63
48424;BME280;34232;42.502;26.014;2023-03-04T05:42:17;100271.28;;;6.30;92.34
48424;BME280;34232;42.502;26.014;2023-03-04T05:44:51;100268.09;;;6.25;92.83
48424;BME280;34232;42.502;26.014;2023-03-04T05:47:16;100261.56;;;6.32;93.48
48424;BME280;34232;42.502;26.014;2023-03-04T05:49:42;100267.41;;;6.50;93.77
48424;BME280;34232;42.502;26.014;2023-03-04T05:52:08;100263.97;;;6.50;93.57
48424;BME280;34232;42.502;26.014;2023-03-04T05:54:34;100272.75;;;6.63;93.54
48424;BME280;34232;42.502;26.014;2023-03-04T05:56:59;100263.19;;;6.76;92.15
48424;BME280;34232;42.502;26.014;2023-03-04T05:59:24;100265.31;;;6.84;92.11
48424;BME280;34232;42.502;26.014;2023-03-04T06:01:50;100262.31;;;6.90;91.77
48424;BME280;34232;42.502;26.014;2023-03-04T06:04:15;100269.56;;;6.99;91.44
48424;BME280;34232;42.502;26.014;2023-03-04T06:06:40;100279.31;;;6.97;91.78
48424;BME280;34232;42.502;26.014;2023-03-04T06:09:05;100280.03;;;6.99;92.24
48424;BME280;34232;42.502;26.014;2023-03-04T06:11:31;100278.66;;;6.93;91.82
48424;BME280;34232;42.502;26.014;2023-03-04T06:13:56;100284.41;;;6.98;92.20
48424;BME280;34232;42.502;26.014;2023-03-04T06:16:21;100286.03;;;6.87;92.15
48424;BME280;34232;42.502;26.014;2023-03-04T06:18:46;100285.31;;;6.71;92.59
48424;BME280;34232;42.502;26.014;2023-03-04T06:21:12;100281.50;;;6.76;92.31
48424;BME280;34232;42.502;26.014;2023-03-04T06:23:37;100287.50;;;6.64;92.64
48424;BME280;34232;42.502;26.014;2023-03-04T06:26:02;100285.91;;;6.61;93.12
48424;BME280;34232;42.502;26.014;2023-03-04T06:28:28;100281.06;;;6.55;93.17
48424;BME280;34232;42.502;26.014;2023-03-04T06:30:54;100282.72;;;6.56;93.02
48424;BME280;34232;42.502;26.014;2023-03-04T06:33:19;100288.88;;;6.70;93.18
48424;BME280;34232;42.502;26.014;2023-03-04T06:35:45;100283.72;;;6.82;92.73
48424;BME280;34232;42.502;26.014;2023-03-04T06:38:10;100281.28;;;6.93;92.45
48424;BME280;34232;42.502;26.014;2023-03-04T06:40:35;100286.94;;;7.00;92.01
48424;BME280;34232;42.502;26.014;2023-03-04T06:43:01;100282.94;;;6.94;91.64
48424;BME280;34232;42.502;26.014;2023-03-04T06:45:26;100296.94;;;7.08;91.91
48424;BME280;34232;42.502;26.014;2023-03-04T06:47:51;100291.44;;;7.25;91.21
48424;BME280;34232;42.502;26.014;2023-03-04T06:50:16;100285.41;;;7.37;91.52
48424;BME280;34232;42.502;26.014;2023-03-04T06:52:42;100286.47;;;7.47;90.28
48424;BME280;34232;42.502;26.014;2023-03-04T06:55:07;100288.50;;;7.56;89.52
48424;BME280;34232;42.502;26.014;2023-03-04T06:57:32;100286.72;;;7.57;87.85
48424;BME280;34232;42.502;26.014;2023-03-04T06:59:58;100288.97;;;7.36;88.71
48424;BME280;34232;42.502;26.014;2023-03-04T07:02:23;100292.13;;;7.41;89.44
48424;BME280;34232;42.502;26.014;2023-03-04T07:04:48;100284.00;;;7.58;89.70
48424;BME280;34232;42.502;26.014;2023-03-04T07:07:14;100281.09;;;7.76;90.29
48424;BME280;34232;42.502;26.014;2023-03-04T07:09:39;100285.72;;;7.85;89.61
48424;BME280;34232;42.502;26.014;2023-03-04T07:12:04;100288.44;;;7.96;89.16
48424;BME280;34232;42.502;26.014;2023-03-04T07:14:30;100282.69;;;8.03;88.20
48424;BME280;34232;42.502;26.014;2023-03-04T07:16:55;100289.06;;;8.12;88.17
48424;BME280;34232;42.502;26.014;2023-03-04T07:19:20;100283.41;;;8.18;86.86
48424;BME280;34232;42.502;26.014;2023-03-04T07:21:46;100276.09;;;8.23;86.43
48424;BME280;34232;42.502;26.014;2023-03-04T07:24:11;100282.19;;;8.36;86.37
48424;BME280;34232;42.502;26.014;2023-03-04T07:26:36;100285.75;;;8.35;86.36
48424;BME280;34232;42.502;26.014;2023-03-04T07:29:02;100288.69;;;8.44;85.66
48424;BME280;34232;42.502;26.014;2023-03-04T07:31:28;100287.22;;;8.39;86.07
48424;BME280;34232;42.502;26.014;2023-03-04T07:33:55;100283.66;;;8.40;84.63
48424;BME280;34232;42.502;26.014;2023-03-04T07:36:21;100285.09;;;8.45;84.64
48424;BME280;34232;42.502;26.014;2023-03-04T07:38:46;100282.06;;;8.51;84.50
48424;BME280;34232;42.502;26.014;2023-03-04T07:41:12;100274.19;;;8.51;84.82
48424;BME280;34232;42.502;26.014;2023-03-04T07:43:37;100269.16;;;8.48;83.16
48424;BME280;34232;42.502;26.014;2023-03-04T07:46:03;100272.19;;;8.54;84.61
48424;BME280;34232;42.502;26.014;2023-03-04T07:48:28;100272.56;;;8.61;83.78
48424;BME280;34232;42.502;26.014;2023-03-04T07:51:10;100271.41;;;8.65;82.88
48424;BME280;34232;42.502;26.014;2023-03-04T07:53:36;100266.81;;;8.68;84.13
48424;BME280;34232;42.502;26.014;2023-03-04T07:56:02;100267.22;;;8.75;84.06
48424;BME280;34232;42.502;26.014;2023-03-04T07:58:28;100264.25;;;8.80;83.39
48424;BME280;34232;42.502;26.014;2023-03-04T08:00:53;100268.22;;;8.85;84.40
48424;BME280;34232;42.502;26.014;2023-03-04T08:03:18;100270.84;;;8.85;84.18
48424;BME280;34232;42.502;26.014;2023-03-04T08:05:43;100262.44;;;8.93;84.09
48424;BME280;34232;42.502;26.014;2023-03-04T08:08:09;100268.84;;;8.89;84.38
48424;BME280;34232;42.502;26.014;2023-03-04T08:10:34;100262.28;;;8.94;85.09
48424;BME280;34232;42.502;26.014;2023-03-04T08:13:00;100270.34;;;8.80;84.33
48424;BME280;34232;42.502;26.014;2023-03-04T08:15:25;100269.06;;;8.86;84.21
48424;BME280;34232;42.502;26.014;2023-03-04T08:17:51;100266.97;;;8.78;85.65
48424;BME280;34232;42.502;26.014;2023-03-04T08:20:16;100256.34;;;8.92;85.16
48424;BME280;34232;42.502;26.014;2023-03-04T08:22:42;100260.59;;;9.06;85.06
48424;BME280;34232;42.502;26.014;2023-03-04T08:25:07;100256.41;;;9.03;84.56
48424;BME280;34232;42.502;26.014;2023-03-04T08:27:32;100261.19;;;9.09;84.23
48424;BME280;34232;42.502;26.014;2023-03-04T08:29:58;100263.25;;;9.17;84.93
48424;BME280;34232;42.502;26.014;2023-03-04T08:32:23;100270.09;;;9.20;83.71
48424;BME280;34232;42.502;26.014;2023-03-04T08:34:48;100264.88;;;9.31;84.47
48424;BME280;34232;42.502;26.014;2023-03-04T08:37:13;100264.66;;;9.34;83.37
48424;BME280;34232;42.502;26.014;2023-03-04T08:39:39;100256.75;;;9.58;83.18
48424;BME280;34232;42.502;26.014;2023-03-04T08:42:04;100264.50;;;9.59;82.66
48424;BME280;34232;42.502;26.014;2023-03-04T08:44:29;100248.03;;;9.68;82.22
48424;BME280;34232;42.502;26.014;2023-03-04T08:46:55;100253.09;;;9.94;80.22
48424;BME280;34232;42.502;26.014;2023-03-04T08:49:20;100247.63;;;9.97;78.11
48424;BME280;34232;42.502;26.014;2023-03-04T08:51:45;100244.38;;;9.93;79.16
48424;BME280;34232;42.502;26.014;2023-03-04T08:54:11;100249.00;;;9.78;79.41
48424;BME280;34232;42.502;26.014;2023-03-04T08:56:36;100247.84;;;9.94;79.81
48424;BME280;34232;42.502;26.014;2023-03-04T08:59:01;100245.47;;;10.13;78.61
48424;BME280;34232;42.502;26.014;2023-03-04T09:01:26;100234.59;;;10.17;77.80
48424;BME280;34232;42.502;26.014;2023-03-04T09:03:52;100243.59;;;10.26;76.20
48424;BME280;34232;42.502;26.014;2023-03-04T09:06:17;100239.31;;;10.36;75.47
48424;BME280;34232;42.502;26.014;2023-03-04T09:08:43;100234.38;;;10.43;75.89
48424;BME280;34232;42.502;26.014;2023-03-04T09:11:09;100241.91;;;10.47;77.23
48424;BME280;34232;42.502;26.014;2023-03-04T09:13:34;100242.13;;;10.56;78.19
48424;BME280;34232;42.502;26.014;2023-03-04T09:16:00;100242.00;;;10.57;78.07
48424;BME280;34232;42.502;26.014;2023-03-04T09:18:26;100238.31;;;10.71;76.11
48424;BME280;34232;42.502;26.014;2023-03-04T09:20:51;100241.63;;;10.73;75.60
48424;BME280;34232;42.502;26.014;2023-03-04T09:23:17;100243.09;;;10.66;75.74
48424;BME280;34232;42.502;26.014;2023-03-04T09:25:42;100239.72;;;10.75;75.52
48424;BME280;34232;42.502;26.014;2023-03-04T09:28:09;100233.53;;;10.65;76.06
48424;BME280;34232;42.502;26.014;2023-03-04T09:30:35;100239.03;;;10.62;77.02
48424;BME280;34232;42.502;26.014;2023-03-04T09:33:00;100235.19;;;10.66;77.07
48424;BME280;34232;42.502;26.014;2023-03-04T09:35:25;100234.84;;;10.70;76.34
48424;BME280;34232;42.502;26.014;2023-03-04T09:37:51;100224.16;;;10.72;76.77
48424;BME280;34232;42.502;26.014;2023-03-04T09:40:22;100226.06;;;10.81;75.93
48424;BME280;34232;42.502;26.014;2023-03-04T09:42:49;100223.44;;;10.81;76.56
48424;BME280;34232;42.502;26.014;2023-03-04T09:45:16;100222.75;;;10.68;76.32
48424;BME280;34232;42.502;26.014;2023-03-04T09:47:42;100227.75;;;10.82;76.85
48424;BME280;34232;42.502;26.014;2023-03-04T09:50:09;100221.75;;;10.80;75.70
48424;BME280;34232;42.502;26.014;2023-03-04T09:58:02;100208.25;;;11.05;77.17
48424;BME280;34232;42.502;26.014;2023-03-04T10:00:39;100203.69;;;10.75;78.87
48424;BME280;34232;42.502;26.014;2023-03-04T10:05:41;100191.59;;;11.16;77.21
48424;BME280;34232;42.502;26.014;2023-03-04T10:10:53;100183.03;;;11.23;76.80
48424;BME280;34232;42.502;26.014;2023-03-04T10:13:30;100183.69;;;11.37;76.90
48424;BME280;34232;42.502;26.014;2023-03-04T10:16:00;100177.44;;;11.58;74.82
48424;BME280;34232;42.502;26.014;2023-03-04T10:18:29;100174.72;;;11.70;72.92
48424;BME280;34232;42.502;26.014;2023-03-04T10:20:57;100171.22;;;11.80;73.04
48424;BME280;34232;42.502;26.014;2023-03-04T10:23:25;100167.72;;;12.01;72.34
48424;BME280;34232;42.502;26.014;2023-03-04T10:25:51;100161.38;;;12.13;71.61
48424;BME280;34232;42.502;26.014;2023-03-04T10:31:01;100164.88;;;11.72;72.55
48424;BME280;34232;42.502;26.014;2023-03-04T10:33:29;100153.47;;;11.82;72.22
48424;BME280;34232;42.502;26.014;2023-03-04T10:36:02;100156.59;;;11.97;70.94
48424;BME280;34232;42.502;26.014;2023-03-04T10:38:32;100154.94;;;12.06;70.00
48424;BME280;34232;42.502;26.014;2023-03-04T10:40:58;100144.84;;;12.11;68.75
48424;BME280;34232;42.502;26.014;2023-03-04T10:43:23;100144.88;;;11.90;69.38
48424;BME280;34232;42.502;26.014;2023-03-04T10:45:51;100136.09;;;11.59;70.38
48424;BME280;34232;42.502;26.014;2023-03-04T10:48:20;100127.44;;;11.47;71.26
48424;BME280;34232;42.502;26.014;2023-03-04T10:50:46;100130.56;;;11.62;71.78
48424;BME280;34232;42.502;26.014;2023-03-04T10:53:22;100125.91;;;11.75;72.41
48424;BME280;34232;42.502;26.014;2023-03-04T10:55:49;100122.38;;;11.86;71.85
48424;BME280;34232;42.502;26.014;2023-03-04T10:58:15;100112.81;;;11.64;70.14
48424;BME280;34232;42.502;26.014;2023-03-04T11:00:42;100108.97;;;11.68;70.62
48424;BME280;34232;42.502;26.014;2023-03-04T11:05:45;100106.28;;;11.89;71.09
48424;BME280;34232;42.502;26.014;2023-03-04T11:08:17;100105.31;;;11.69;70.25
48424;BME280;34232;42.502;26.014;2023-03-04T11:10:46;100092.44;;;11.36;72.28
48424;BME280;34232;42.502;26.014;2023-03-04T11:13:18;100085.31;;;11.57;72.77
48424;BME280;34232;42.502;26.014;2023-03-04T11:15:48;100080.63;;;11.40;72.53
48424;BME280;34232;42.502;26.014;2023-03-04T11:18:14;100069.31;;;11.18;76.16
48424;BME280;34232;42.502;26.014;2023-03-04T11:20:40;100067.72;;;11.37;74.14
48424;BME280;34232;42.502;26.014;2023-03-04T11:25:57;100065.63;;;11.61;74.53
48424;BME280;34232;42.502;26.014;2023-03-04T11:28:27;100057.72;;;11.71;73.24
48424;BME280;34232;42.502;26.014;2023-03-04T11:30:56;100067.28;;;11.62;72.07
48424;BME280;34232;42.502;26.014;2023-03-04T11:33:40;100062.81;;;11.83;72.98
48424;BME280;34232;42.502;26.014;2023-03-04T11:38:52;100054.47;;;11.48;74.25
48424;BME280;34232;42.502;26.014;2023-03-04T11:43:44;100045.38;;;11.71;73.21
48424;BME280;34232;42.502;26.014;2023-03-04T11:46:33;100042.41;;;11.55;72.39
48424;BME280;34232;42.502;26.014;2023-03-04T11:54:15;100036.94;;;12.17;71.14
48424;BME280;34232;42.502;26.014;2023-03-04T11:56:45;100035.25;;;12.07;67.41
48424;BME280;34232;42.502;26.014;2023-03-04T12:04:43;100024.84;;;12.53;67.26
48424;BME280;34232;42.502;26.014;2023-03-04T12:15:05;100025.53;;;12.75;64.60
48424;BME280;34232;42.502;26.014;2023-03-04T12:22:46;100000.78;;;12.76;64.86
48424;BME280;34232;42.502;26.014;2023-03-04T12:28:14;100001.38;;;12.60;64.48
48424;BME280;34232;42.502;26.014;2023-03-04T12:36:09;100001.38;;;12.60;63.71
48424;BME280;34232;42.502;26.014;2023-03-04T12:38:49;99990.53;;;12.44;65.11
48424;BME280;34232;42.502;26.014;2023-03-04T12:43:48;99988.00;;;12.81;66.99
48424;BME280;34232;42.502;26.014;2023-03-04T12:46:20;99984.91;;;12.95;66.46
48424;BME280;34232;42.502;26.014;2023-03-04T12:48:57;99987.38;;;13.06;65.86
48424;BME280;34232;42.502;26.014;2023-03-04T12:56:40;99991.25;;;13.12;68.59
48424;BME280;34232;42.502;26.014;2023-03-04T12:59:11;99977.91;;;13.13;66.19
48424;BME280;34232;42.502;26.014;2023-03-04T13:01:38;99981.94;;;13.08;64.71
48424;BME280;34232;42.502;26.014;2023-03-04T13:04:18;99977.78;;;13.05;63.18
48424;BME280;34232;42.502;26.014;2023-03-04T13:09:22;99969.84;;;13.05;66.05
48424;BME280;34232;42.502;26.014;2023-03-04T13:21:53;99957.81;;;13.30;67.98
48424;BME280;34232;42.502;26.014;2023-03-04T13:27:42;99950.97;;;13.37;66.31
48424;BME280;34232;42.502;26.014;2023-03-04T13:29:48;99948.91;;;13.31;67.30
48424;BME280;34232;42.502;26.014;2023-03-04T13:32:13;99945.53;;;13.39;65.92
48424;BME280;34232;42.502;26.014;2023-03-04T13:34:58;99939.66;;;13.45;68.05
48424;BME280;34232;42.502;26.014;2023-03-04T13:37:31;99937.16;;;13.43;66.64
48424;BME280;34232;42.502;26.014;2023-03-04T13:42:41;99932.03;;;13.42;67.20
48424;BME280;34232;42.502;26.014;2023-03-04T13:47:51;99918.78;;;13.42;67.11
48424;BME280;34232;42.502;26.014;2023-03-04T13:52:45;99906.94;;;13.46;66.76
48424;BME280;34232;42.502;26.014;2023-03-04T13:57:54;99914.38;;;13.32;68.67
48424;BME280;34232;42.502;26.014;2023-03-04T14:00:19;99903.81;;;13.32;67.88
48424;BME280;34232;42.502;26.014;2023-03-04T14:02:45;99898.22;;;13.36;67.58
48424;BME280;34232;42.502;26.014;2023-03-04T14:05:10;99887.66;;;13.36;68.32
48424;BME280;34232;42.502;26.014;2023-03-04T14:07:36;99887.94;;;13.32;69.05
48424;BME280;34232;42.502;26.014;2023-03-04T14:10:03;99885.97;;;13.35;69.06
48424;BME280;34232;42.502;26.014;2023-03-04T14:12:35;99881.16;;;13.48;69.94
48424;BME280;34232;42.502;26.014;2023-03-04T14:15:05;99884.19;;;13.53;69.51
48424;BME280;34232;42.502;26.014;2023-03-04T14:17:46;99881.66;;;13.61;67.85
48424;BME280;34232;42.502;26.014;2023-03-04T14:22:47;99881.34;;;13.64;67.26
48424;BME280;34232;42.502;26.014;2023-03-04T14:27:37;99874.25;;;13.47;66.05